createdAt,value
2017-11-03T00:00:30.792Z,89.1
2017-11-03T00:01:30.104Z,89.2
2017-11-03T00:02:28.770Z,89.2
2017-11-03T00:03:27.933Z,89.1
2017-11-03T00:04:27.252Z,89
2017-11-03T00:05:26.286Z,89
2017-11-03T00:06:25.450Z,89
2017-11-03T00:07:24.759Z,89.1
2017-11-03T00:08:23.571Z,89
2017-11-03T00:09:22.503Z,89.2
2017-11-03T00:10:21.797Z,89.1
2017-11-03T00:11:20.853Z,89
2017-11-03T00:12:19.885Z,89
2017-11-03T00:13:19.318Z,88.8
2017-11-03T00:14:18.217Z,88.7
2017-11-03T00:15:17.403Z,88.7
2017-11-03T00:16:16.431Z,88.8
2017-11-03T00:17:15.381Z,88.8
2017-11-03T00:18:14.415Z,88.7
2017-11-03T00:19:13.685Z,88.8
2017-11-03T00:20:12.851Z,89
2017-11-03T00:21:11.881Z,89
2017-11-03T00:22:10.783Z,88.7
2017-11-03T00:23:10.081Z,88.7
2017-11-03T00:24:09.376Z,88.8
2017-11-03T00:25:08.535Z,88.8
2017-11-03T00:26:07.194Z,88.7
2017-11-03T00:27:06.516Z,88.7
2017-11-03T00:29:04.703Z,88.6
2017-11-03T00:30:03.882Z,88.8
2017-11-03T00:31:03.036Z,88.7
2017-11-03T00:32:02.204Z,88.7
2017-11-03T00:33:01.380Z,88.7
2017-11-03T00:34:00.284Z,88.5
2017-11-03T00:34:59.447Z,88.5
2017-11-03T00:35:58.487Z,88.5
2017-11-03T00:36:57.385Z,88.6
2017-11-03T00:37:57.052Z,88.6
2017-11-03T00:38:55.737Z,88.7
2017-11-03T00:39:55.039Z,88.7
2017-11-03T00:40:54.069Z,88.8
2017-11-03T00:41:53.471Z,88.9
2017-11-03T00:42:52.274Z,88.8
2017-11-03T00:43:51.308Z,88.9
2017-11-03T00:44:50.339Z,89
2017-11-03T00:45:49.503Z,89
2017-11-03T00:46:48.808Z,89.1
2017-11-03T00:47:47.839Z,89
2017-11-03T00:48:46.867Z,88.9
2017-11-03T00:49:46.163Z,88.9
2017-11-03T00:50:45.345Z,88.9
2017-11-03T00:51:44.512Z,89
2017-11-03T00:52:43.415Z,88.9
2017-11-03T00:53:42.686Z,89
2017-11-03T00:54:41.593Z,88.9
2017-11-03T00:55:40.756Z,89
2017-11-03T00:56:40.046Z,89
2017-11-03T00:57:38.817Z,89
2017-11-03T00:58:37.981Z,89
2017-11-03T00:59:37.150Z,89
2017-11-03T01:00:36.313Z,89.2
2017-11-03T01:01:35.349Z,89.2
2017-11-03T01:02:34.510Z,89.2
2017-11-03T01:03:33.682Z,89.2
2017-11-03T01:04:32.856Z,89.1
2017-11-03T01:05:31.886Z,89.1
2017-11-03T01:06:31.047Z,89.1
2017-11-03T01:07:30.086Z,89.2
2017-11-03T01:08:28.883Z,89.1
2017-11-03T01:09:28.329Z,89.1
2017-11-03T01:10:27.494Z,89.1
2017-11-03T01:10:58.253Z,89.1
2017-11-03T01:11:28.732Z,89.2
2017-11-03T01:12:25.502Z,89.2
2017-11-03T01:13:24.802Z,89.2
2017-11-03T01:14:23.971Z,89.1
2017-11-03T01:16:22.017Z,89.1
2017-11-03T01:17:21.450Z,89.2
2017-11-03T01:18:20.355Z,89.3
2017-11-03T01:19:19.527Z,89.2
2017-11-03T01:20:18.699Z,89.2
2017-11-03T01:21:17.866Z,89.3
2017-11-03T01:22:16.809Z,89.3
2017-11-03T01:23:15.843Z,89.3
2017-11-03T01:24:15.003Z,89.3
2017-11-03T01:25:14.056Z,89.3
2017-11-03T01:26:13.212Z,89.4
2017-11-03T01:27:12.111Z,89.2
2017-11-03T01:28:11.404Z,89.2
2017-11-03T01:29:10.566Z,89.3
2017-11-03T01:30:09.856Z,89.3
2017-11-03T01:31:08.516Z,89.1
2017-11-03T01:32:07.921Z,89.1
2017-11-03T01:33:06.822Z,89.2
2017-11-03T01:34:05.978Z,89.1
2017-11-03T01:35:05.283Z,89
2017-11-03T01:36:04.316Z,89.1
2017-11-03T01:37:03.746Z,89.2
2017-11-03T01:38:02.940Z,89.2
2017-11-03T01:39:01.597Z,89.2
2017-11-03T01:40:00.773Z,89.2
2017-11-03T01:40:59.939Z,89.3
2017-11-03T01:41:58.972Z,89.3
2017-11-03T01:42:58.529Z,89.3
2017-11-03T01:43:57.190Z,89.3
2017-11-03T01:44:56.502Z,89.3
2017-11-03T01:45:55.540Z,89.3
2017-11-03T01:46:54.705Z,89.3
2017-11-03T01:47:53.733Z,89.2
2017-11-03T01:48:52.762Z,89.2
2017-11-03T01:49:51.929Z,89.3
2017-11-03T01:50:50.957Z,89.3
2017-11-03T01:51:50.131Z,89.3
2017-11-03T01:52:49.292Z,89.2
2017-11-03T01:53:48.690Z,89.2
2017-11-03T01:54:47.856Z,89.2
2017-11-03T01:55:46.816Z,89.1
2017-11-03T01:56:45.605Z,89.1
2017-11-03T01:57:45.050Z,89.1
2017-11-03T01:58:44.081Z,88.9
2017-11-03T01:59:43.112Z,89
2017-11-03T02:00:42.274Z,89
2017-11-03T02:01:41.579Z,89
2017-11-03T02:03:39.491Z,89
2017-11-03T02:04:38.656Z,89
2017-11-03T02:05:37.822Z,89.1
2017-11-03T02:06:37.121Z,88.9
2017-11-03T02:07:36.160Z,89
2017-11-03T02:08:35.337Z,89
2017-11-03T02:09:34.637Z,89
2017-11-03T02:10:33.668Z,88.8
2017-11-03T02:11:32.346Z,88.6
2017-11-03T02:12:31.748Z,88.7
2017-11-03T02:13:30.910Z,88.7
2017-11-03T02:14:29.703Z,88.7
2017-11-03T02:15:29.106Z,88.8
2017-11-03T02:16:28.290Z,88.8
2017-11-03T02:17:27.461Z,88.9
2017-11-03T02:18:26.411Z,89.1
2017-11-03T02:19:25.453Z,89.1
2017-11-03T02:20:24.620Z,89
2017-11-03T02:21:24.057Z,89.1
2017-11-03T02:22:22.996Z,89
2017-11-03T02:23:22.025Z,89.1
2017-11-03T02:24:21.449Z,89.2
2017-11-03T02:25:20.352Z,89.3
2017-11-03T02:26:19.641Z,89.3
2017-11-03T02:27:18.671Z,89.2
2017-11-03T02:28:17.459Z,89.2
2017-11-03T02:29:16.622Z,89.3
2017-11-03T02:29:46.965Z,89.3
2017-11-03T02:31:15.317Z,89.3
2017-11-03T02:32:13.973Z,89.3
2017-11-03T02:33:13.149Z,89.3
2017-11-03T02:34:12.316Z,89.4
2017-11-03T02:35:11.606Z,89.4
2017-11-03T02:36:10.775Z,89.4
2017-11-03T02:37:09.566Z,89.5
2017-11-03T02:38:09.103Z,89.7
2017-11-03T02:39:08.023Z,89.7
2017-11-03T02:40:07.065Z,89.7
2017-11-03T02:41:06.000Z,89.9
2017-11-03T02:41:36.476Z,89.9
2017-11-03T02:42:06.861Z,90.1
2017-11-03T02:43:04.512Z,90.1
2017-11-03T02:44:03.681Z,90.3
2017-11-03T02:45:02.606Z,90.5
2017-11-03T02:46:01.807Z,90.5
2017-11-03T02:47:01.105Z,90.4
2017-11-03T02:48:00.167Z,90.4
2017-11-03T02:48:59.117Z,90.5
2017-11-03T02:49:58.150Z,90.5
2017-11-03T02:50:57.549Z,90.6
2017-11-03T02:51:56.713Z,90.6
2017-11-03T02:52:55.501Z,90.6
2017-11-03T02:53:54.533Z,90.7
2017-11-03T02:54:53.835Z,90.7
2017-11-03T02:55:52.733Z,90.5
2017-11-03T02:56:51.891Z,90.6
2017-11-03T02:57:51.178Z,90.5
2017-11-03T02:58:50.342Z,90.6
2017-11-03T02:59:49.633Z,90.6
2017-11-03T03:00:48.527Z,90.5
2017-11-03T03:01:47.963Z,90.5
2017-11-03T03:02:47.127Z,90.5
2017-11-03T03:03:46.024Z,90.5
2017-11-03T03:04:45.046Z,90.5
2017-11-03T03:05:44.205Z,90.5
2017-11-03T03:06:43.099Z,90.5
2017-11-03T03:07:42.390Z,90.6
2017-11-03T03:08:41.915Z,90.7
2017-11-03T03:09:40.580Z,90.7
2017-11-03T03:10:39.868Z,90.6
2017-11-03T03:11:38.813Z,90.5
2017-11-03T03:12:37.963Z,90.5
2017-11-03T03:13:37.139Z,90.5
2017-11-03T03:14:36.567Z,90.5
2017-11-03T03:15:35.490Z,90.4
2017-11-03T03:16:34.388Z,90.4
2017-11-03T03:17:33.648Z,90.3
2017-11-03T03:18:32.675Z,90.4
2017-11-03T03:19:31.980Z,90.5
2017-11-03T03:20:30.895Z,90.4
2017-11-03T03:21:29.915Z,90.5
2017-11-03T03:22:00.393Z,90.5
2017-11-03T03:22:30.872Z,90.6
2017-11-03T03:23:01.278Z,90.6
2017-11-03T03:23:31.877Z,90.7
2017-11-03T03:24:02.087Z,90.7
2017-11-03T03:25:26.681Z,90.6
2017-11-03T03:26:25.829Z,90.4
2017-11-03T03:27:24.853Z,90.4
2017-11-03T03:29:23.052Z,90.5
2017-11-03T03:30:22.210Z,90.6
2017-11-03T03:31:21.515Z,90.5
2017-11-03T03:32:20.398Z,90.5
2017-11-03T03:33:19.672Z,90.5
2017-11-03T03:34:18.440Z,90.3
2017-11-03T03:35:17.826Z,90.3
2017-11-03T03:36:16.981Z,90.4
2017-11-03T03:37:16.005Z,90.4
2017-11-03T03:38:15.016Z,90.4
2017-11-03T03:39:14.303Z,90.5
2017-11-03T03:40:13.577Z,90.6
2017-11-03T03:41:12.590Z,90.4
2017-11-03T03:42:11.734Z,90.4
2017-11-03T03:43:10.881Z,90.6
2017-11-03T03:44:09.757Z,90.6
2017-11-03T03:45:08.905Z,90.6
2017-11-03T03:46:08.047Z,90.6
2017-11-03T03:47:07.196Z,90.5
2017-11-03T03:48:06.488Z,90.5
2017-11-03T03:49:05.632Z,90.6
2017-11-03T03:50:04.646Z,90.6
2017-11-03T03:51:03.926Z,90.4
2017-11-03T03:52:02.938Z,90.4
2017-11-03T03:53:01.954Z,90.5
2017-11-03T03:54:01.221Z,90.6
2017-11-03T03:55:00.123Z,90.6
2017-11-03T03:56:58.667Z,90.5
2017-11-03T03:57:57.309Z,90.6
2017-11-03T03:58:56.835Z,90.5
2017-11-03T03:59:55.862Z,90.6
2017-11-03T04:00:55.006Z,90.6
2017-11-03T04:01:53.951Z,90.6
2017-11-03T04:02:53.092Z,90.7
2017-11-03T04:03:52.511Z,90.6
2017-11-03T04:04:23.101Z,90.6
2017-11-03T04:04:53.692Z,90.6
2017-11-03T04:05:50.464Z,90.7
2017-11-03T04:06:49.845Z,90.6
2017-11-03T04:07:49.024Z,90.7
2017-11-03T04:08:48.062Z,90.6
2017-11-03T04:09:47.344Z,90.6
2017-11-03T04:10:46.355Z,90.6
2017-11-03T04:11:45.233Z,90.6
2017-11-03T04:12:44.383Z,90.6
2017-11-03T04:13:43.416Z,90.7
2017-11-03T04:14:42.405Z,90.7
2017-11-03T04:15:41.552Z,90.9
2017-11-03T04:16:40.695Z,91.1
2017-11-03T04:17:40.212Z,91
2017-11-03T04:18:39.357Z,91.1
2017-11-03T04:19:38.130Z,91.2
2017-11-03T04:20:37.277Z,91.2
2017-11-03T04:21:36.429Z,91.2
2017-11-03T04:22:35.843Z,91.3
2017-11-03T04:23:34.982Z,91.4
2017-11-03T04:24:33.761Z,91.4
2017-11-03T04:25:33.049Z,91.5
2017-11-03T04:26:31.935Z,91.4
2017-11-03T04:27:30.960Z,91.5
2017-11-03T04:28:30.480Z,91.5
2017-11-03T04:29:29.631Z,91.5
2017-11-03T04:30:28.776Z,91.5
2017-11-03T04:31:27.791Z,91.5
2017-11-03T04:32:26.938Z,91.5
2017-11-03T04:33:25.716Z,91.6
2017-11-03T04:34:24.866Z,91.6
2017-11-03T04:35:24.404Z,91.6
2017-11-03T04:36:23.422Z,91.7
2017-11-03T04:37:22.437Z,91.7
2017-11-03T04:38:21.333Z,91.7
2017-11-03T04:39:20.609Z,91.7
2017-11-03T04:40:19.765Z,91.7
2017-11-03T04:41:18.823Z,91.7
2017-11-03T04:42:17.839Z,91.7
2017-11-03T04:43:17.120Z,91.7
2017-11-03T04:44:16.405Z,91.7
2017-11-03T04:45:15.280Z,91.7
2017-11-03T04:46:14.423Z,91.8
2017-11-03T04:47:13.299Z,91.9
2017-11-03T04:48:12.452Z,91.8
2017-11-03T04:49:11.972Z,91.8
2017-11-03T04:50:10.985Z,91.8
2017-11-03T04:51:10.195Z,91.9
2017-11-03T04:52:09.210Z,91.9
2017-11-03T04:53:08.489Z,91.9
2017-11-03T04:54:07.634Z,91.9
2017-11-03T04:55:06.515Z,91.9
2017-11-03T04:56:05.668Z,91.8
2017-11-03T04:57:04.954Z,91.9
2017-11-03T04:58:03.605Z,91.9
2017-11-03T04:59:02.751Z,92
2017-11-03T04:59:33.211Z,92
2017-11-03T05:00:03.830Z,92
2017-11-03T05:00:34.320Z,92
2017-11-03T05:01:04.908Z,92.1
2017-11-03T05:01:35.376Z,92.1
2017-11-03T05:02:59.421Z,92.2
2017-11-03T05:03:58.446Z,92.2
2017-11-03T05:04:57.592Z,92.2
2017-11-03T05:05:56.741Z,92.2
2017-11-03T05:06:55.991Z,92.2
2017-11-03T05:07:55.023Z,92.3
2017-11-03T05:08:54.399Z,92.3
2017-11-03T05:09:53.178Z,92.4
2017-11-03T05:10:52.462Z,92.3
2017-11-03T05:11:22.926Z,92.3
2017-11-03T05:12:50.627Z,92.3
2017-11-03T05:14:49.049Z,92.4
2017-11-03T05:15:48.063Z,92.4
2017-11-03T05:16:47.320Z,92.4
2017-11-03T05:17:46.597Z,92.4
2017-11-03T05:18:45.398Z,92.4
2017-11-03T05:19:44.312Z,92.4
2017-11-03T05:20:43.474Z,92.3
2017-11-03T05:21:42.494Z,92.5
2017-11-03T05:22:42.021Z,92.5
2017-11-03T05:23:41.171Z,92.4
2017-11-03T05:24:39.950Z,92.4
2017-11-03T05:25:38.964Z,92.4
2017-11-03T05:26:38.476Z,92.4
2017-11-03T05:27:37.772Z,92.3
2017-11-03T05:28:36.547Z,92.3
2017-11-03T05:29:35.429Z,92.4
2017-11-03T05:30:34.819Z,92.3
2017-11-03T05:31:33.873Z,92.3
2017-11-03T05:33:32.033Z,92.3
2017-11-03T05:34:31.316Z,92.4
2017-11-03T05:35:30.201Z,92.4
2017-11-03T05:36:29.342Z,92.4
2017-11-03T05:37:28.591Z,92.3
2017-11-03T05:38:27.871Z,92.3
2017-11-03T05:38:58.204Z,92.3
2017-11-03T05:39:28.530Z,92.3
2017-11-03T05:39:59.222Z,92.3
2017-11-03T05:40:29.680Z,92.3
2017-11-03T05:41:00.269Z,92.3
2017-11-03T05:41:30.874Z,92.3
2017-11-03T05:42:01.069Z,92.3
2017-11-03T05:42:31.409Z,92.3
2017-11-03T05:43:01.994Z,92.3
2017-11-03T05:44:22.408Z,92.3
2017-11-03T05:45:21.451Z,92.4
2017-11-03T05:46:20.464Z,92.4
2017-11-03T05:47:19.982Z,92.4
2017-11-03T05:48:18.988Z,92.4
2017-11-03T05:49:18.137Z,92.4
2017-11-03T05:50:17.149Z,92.3
2017-11-03T05:51:16.445Z,92.3
2017-11-03T05:51:46.652Z,92.3
2017-11-03T05:52:17.238Z,92.3
2017-11-03T05:52:47.828Z,92.3
2017-11-03T05:53:18.293Z,92.3
2017-11-03T05:53:48.752Z,92.3
2017-11-03T05:55:12.567Z,92.2
2017-11-03T05:56:11.958Z,92.2
2017-11-03T05:57:10.842Z,92.2
2017-11-03T05:58:09.857Z,92.2
2017-11-03T05:59:09.411Z,92.2
2017-11-03T06:01:07.321Z,92.1
2017-11-03T06:02:06.605Z,92.1
2017-11-03T06:03:05.614Z,92.1
2017-11-03T06:04:04.763Z,92.1
2017-11-03T06:05:03.639Z,92.1
2017-11-03T06:06:03.284Z,92.1
2017-11-03T06:07:02.309Z,92.1
2017-11-03T06:08:01.332Z,92.1
2017-11-03T06:09:00.244Z,92.1
2017-11-03T06:09:59.610Z,92
2017-11-03T06:10:58.390Z,92
2017-11-03T06:11:57.402Z,92
2017-11-03T06:12:56.823Z,92
2017-11-03T06:13:56.233Z,91.8
2017-11-03T06:14:54.879Z,91.8
2017-11-03T06:15:54.259Z,91.7
2017-11-03T06:16:53.276Z,91.7
2017-11-03T06:17:52.425Z,91.7
2017-11-03T06:18:51.722Z,91.8
2017-11-03T06:19:50.854Z,91.8
2017-11-03T06:20:50.032Z,91.7
2017-11-03T06:21:48.810Z,91.8
2017-11-03T06:22:47.822Z,91.7
2017-11-03T06:23:47.334Z,91.7
2017-11-03T06:24:46.242Z,91.7
2017-11-03T06:25:45.646Z,91.7
2017-11-03T06:26:44.163Z,91.7
2017-11-03T06:27:43.578Z,91.9
2017-11-03T06:28:42.859Z,91.8
2017-11-03T06:29:41.497Z,91.8
2017-11-03T06:30:41.022Z,91.7
2017-11-03T06:31:40.172Z,91.7
2017-11-03T06:32:10.765Z,91.7
2017-11-03T06:32:41.085Z,91.8
2017-11-03T06:33:11.679Z,91.8
2017-11-03T06:34:37.500Z,91.8
2017-11-03T06:35:36.660Z,91.8
2017-11-03T06:36:35.813Z,91.8
2017-11-03T06:37:34.618Z,91.8
2017-11-03T06:38:34.136Z,91.7
2017-11-03T06:39:32.777Z,91.8
2017-11-03T06:40:31.926Z,91.8
2017-11-03T06:41:31.070Z,91.8
2017-11-03T06:42:30.347Z,91.7
2017-11-03T06:43:29.235Z,91.7
2017-11-03T06:44:28.386Z,91.7
2017-11-03T06:45:27.656Z,91.8
2017-11-03T06:46:26.667Z,91.7
2017-11-03T06:48:24.830Z,91.8
2017-11-03T06:49:24.372Z,91.8
2017-11-03T06:50:23.517Z,91.8
2017-11-03T06:51:22.286Z,91.8
2017-11-03T06:52:21.565Z,91.7
2017-11-03T06:53:20.711Z,91.8
2017-11-03T06:54:19.741Z,91.8
2017-11-03T06:55:18.799Z,91.9
2017-11-03T06:56:17.699Z,91.9
2017-11-03T06:57:17.218Z,91.9
2017-11-03T06:58:15.992Z,91.9
2017-11-03T06:59:15.408Z,92
2017-11-03T07:00:14.185Z,92
2017-11-03T07:01:13.331Z,92
2017-11-03T07:03:11.856Z,91.9
2017-11-03T07:04:10.869Z,91.9
2017-11-03T07:05:09.790Z,91.9
2017-11-03T07:06:09.312Z,91.9
2017-11-03T07:08:07.335Z,91.9
2017-11-03T07:09:06.217Z,92
2017-11-03T07:10:05.234Z,92
2017-11-03T07:11:04.382Z,92
2017-11-03T07:12:03.666Z,92.1
2017-11-03T07:13:02.810Z,92.1
2017-11-03T07:14:01.842Z,92.1
2017-11-03T07:15:01.006Z,92.2
2017-11-03T07:16:00.511Z,92.2
2017-11-03T07:16:59.286Z,92.2
2017-11-03T07:17:58.442Z,92.2
2017-11-03T07:18:57.741Z,92.3
2017-11-03T07:19:56.402Z,92.3
2017-11-03T07:20:55.918Z,92.3
2017-11-03T07:21:54.931Z,92.4
2017-11-03T07:22:54.072Z,92.5
2017-11-03T07:23:52.980Z,92.5
2017-11-03T07:24:52.253Z,92.5
2017-11-03T07:25:51.264Z,92.5
2017-11-03T07:26:50.178Z,92.4
2017-11-03T07:27:49.845Z,92.5
2017-11-03T07:28:48.727Z,92.6
2017-11-03T07:29:47.735Z,92.6
2017-11-03T07:30:47.149Z,92.6
2017-11-03T07:31:46.163Z,92.6
2017-11-03T07:32:45.072Z,92.7
2017-11-03T07:33:44.095Z,92.6
2017-11-03T07:34:43.244Z,92.6
2017-11-03T07:35:42.405Z,92.6
2017-11-03T07:36:41.687Z,92.5
2017-11-03T07:37:40.835Z,92.5
2017-11-03T07:38:39.615Z,92.4
2017-11-03T07:39:38.893Z,92.4
2017-11-03T07:40:37.901Z,92.4
2017-11-03T07:41:36.909Z,92.3
2017-11-03T07:42:36.156Z,92.2
2017-11-03T07:43:35.296Z,92.2
2017-11-03T07:44:34.568Z,92.1
2017-11-03T07:45:33.712Z,92
2017-11-03T07:46:32.737Z,91.9
2017-11-03T07:47:32.019Z,91.9
2017-11-03T07:48:31.296Z,91.8
2017-11-03T07:49:30.205Z,91.7
2017-11-03T07:50:29.218Z,91.5
2017-11-03T07:51:28.225Z,91.3
2017-11-03T07:52:27.543Z,91.1
2017-11-03T07:53:26.695Z,91
2017-11-03T07:54:25.712Z,90.8
2017-11-03T07:55:24.728Z,90.8
2017-11-03T07:56:23.736Z,90.7
2017-11-03T07:57:23.167Z,90.4
2017-11-03T07:58:22.324Z,90.4
2017-11-03T07:59:21.474Z,90.1
2017-11-03T08:00:20.640Z,89.4
2017-11-03T08:01:19.793Z,89.4
2017-11-03T08:02:18.572Z,89
2017-11-03T08:03:17.720Z,89
2017-11-03T08:04:16.980Z,89
2017-11-03T08:05:15.998Z,88.8
2017-11-03T08:06:15.148Z,88.8
2017-11-03T08:07:14.164Z,88.8
2017-11-03T08:08:13.184Z,88.9
2017-11-03T08:08:43.649Z,88.9
2017-11-03T08:09:14.109Z,88.9
2017-11-03T08:09:44.570Z,88.9
2017-11-03T08:11:10.520Z,88.4
2017-11-03T08:12:09.775Z,88.5
2017-11-03T08:13:08.657Z,88.6
2017-11-03T08:14:08.033Z,88.3
2017-11-03T08:15:07.181Z,88.4
2017-11-03T08:16:06.599Z,88.2
2017-11-03T08:17:05.246Z,88
2017-11-03T08:18:04.398Z,88.2
2017-11-03T08:19:03.417Z,88
2017-11-03T08:19:33.785Z,88
2017-11-03T08:20:04.116Z,88.1
2017-11-03T08:20:34.227Z,88.1
2017-11-03T08:21:04.553Z,88.1
2017-11-03T08:21:35.023Z,88.1
2017-11-03T08:22:05.259Z,87.8
2017-11-03T08:23:00.116Z,87.6
2017-11-03T08:23:59.549Z,87.7
2017-11-03T08:24:58.439Z,87.8
2017-11-03T08:25:57.319Z,87.6
2017-11-03T08:26:56.838Z,87.2
2017-11-03T08:27:55.617Z,87.3
2017-11-03T08:28:54.765Z,87
2017-11-03T08:29:53.921Z,86.9
2017-11-03T08:30:52.937Z,87
2017-11-03T08:31:52.214Z,87.1
2017-11-03T08:32:51.362Z,87
2017-11-03T08:33:50.508Z,86.9
2017-11-03T08:34:49.664Z,86.3
2017-11-03T08:35:48.681Z,85.8
2017-11-03T08:36:47.572Z,85.8
2017-11-03T08:37:47.098Z,86
2017-11-03T08:38:46.254Z,86
2017-11-03T08:40:44.387Z,85.8
2017-11-03T08:41:43.642Z,85.9
2017-11-03T08:42:42.786Z,85.9
2017-11-03T08:43:41.933Z,85.3
2017-11-03T08:44:40.570Z,85.5
2017-11-03T08:45:39.848Z,85.1
2017-11-03T08:46:39.124Z,85
2017-11-03T08:47:38.412Z,85
2017-11-03T08:48:37.293Z,84.9
2017-11-03T08:49:36.308Z,84.8
2017-11-03T08:50:35.723Z,84.9
2017-11-03T08:51:34.876Z,85
2017-11-03T08:52:05.446Z,85
2017-11-03T08:52:35.903Z,85
2017-11-03T08:53:32.905Z,85.1
2017-11-03T08:54:32.321Z,85
2017-11-03T08:55:31.093Z,85
2017-11-03T08:56:30.376Z,84.6
2017-11-03T08:57:29.530Z,84.5
2017-11-03T08:58:28.697Z,84.7
2017-11-03T08:59:27.467Z,84.5
2017-11-03T09:00:26.749Z,84.6
2017-11-03T09:01:26.028Z,84.7
2017-11-03T09:02:25.045Z,84.7
2017-11-03T09:02:55.771Z,84.7
2017-11-03T09:03:25.858Z,84.3
2017-11-03T09:04:23.497Z,84.3
2017-11-03T09:05:22.647Z,84.2
2017-11-03T09:06:21.666Z,84.3
2017-11-03T09:07:20.678Z,84.5
2017-11-03T09:08:19.840Z,84.2
2017-11-03T09:09:19.128Z,84.2
2017-11-03T09:10:18.406Z,83.1
2017-11-03T09:11:17.556Z,82.3
2017-11-03T09:12:16.340Z,82.6
2017-11-03T09:13:15.491Z,82.2
2017-11-03T09:14:14.506Z,82.6
2017-11-03T09:15:13.760Z,82.7
2017-11-03T09:16:12.782Z,82.8
2017-11-03T09:17:12.201Z,82.6
2017-11-03T09:18:11.349Z,82.7
2017-11-03T09:19:10.489Z,82.4
2017-11-03T09:20:09.514Z,81.8
2017-11-03T09:21:08.676Z,82.1
2017-11-03T09:22:07.695Z,80.9
2017-11-03T09:23:06.846Z,81.3
2017-11-03T09:24:06.282Z,80.6
2017-11-03T09:25:05.056Z,80.6
2017-11-03T09:26:04.335Z,81.1
2017-11-03T09:27:03.092Z,81.1
2017-11-03T09:28:02.611Z,81.2
2017-11-03T09:29:01.387Z,81.2
2017-11-03T09:30:00.906Z,81.2
2017-11-03T09:31:00.205Z,80.9
2017-11-03T09:31:58.855Z,80.4
2017-11-03T09:32:58.272Z,80.8
2017-11-03T09:33:57.155Z,80.8
2017-11-03T09:34:56.318Z,81.2
2017-11-03T09:35:55.465Z,80.7
2017-11-03T09:36:54.603Z,80.9
2017-11-03T09:37:53.892Z,80.5
2017-11-03T09:38:53.051Z,80.1
2017-11-03T09:39:52.488Z,79.9
2017-11-03T09:40:51.309Z,79.8
2017-11-03T09:41:50.579Z,80
2017-11-03T09:42:49.596Z,80.5
2017-11-03T09:43:48.874Z,80
2017-11-03T09:44:48.024Z,79.6
2017-11-03T09:45:47.170Z,79.6
2017-11-03T09:46:45.949Z,79.8
2017-11-03T09:47:45.114Z,79.7
2017-11-03T09:48:44.262Z,79
2017-11-03T09:49:43.656Z,79.1
2017-11-03T09:50:42.804Z,79.1
2017-11-03T09:51:41.717Z,79.3
2017-11-03T09:53:40.125Z,79.3
2017-11-03T09:54:39.277Z,79.2
2017-11-03T09:55:38.567Z,79
2017-11-03T09:56:37.208Z,78.2
2017-11-03T09:57:36.870Z,78.6
2017-11-03T09:58:35.880Z,78.4
2017-11-03T09:59:34.657Z,78.6
2017-11-03T10:00:34.308Z,78.4
2017-11-03T10:01:33.072Z,78.1
2017-11-03T10:02:32.214Z,78.1
2017-11-03T10:03:31.504Z,78.1
2017-11-03T10:04:30.520Z,77.5
2017-11-03T10:05:29.655Z,76.8
2017-11-03T10:06:28.947Z,76.5
2017-11-03T10:07:27.828Z,76.5
2017-11-03T10:08:27.233Z,76.7
2017-11-03T10:09:26.245Z,76.7
2017-11-03T10:10:25.527Z,74.8
2017-11-03T10:11:24.669Z,74.2
2017-11-03T10:12:23.686Z,74.4
2017-11-03T10:13:23.100Z,73.7
2017-11-03T10:14:22.382Z,74.4
2017-11-03T10:15:21.410Z,73.7
2017-11-03T10:16:20.422Z,73.9
2017-11-03T10:17:19.700Z,72.9
2017-11-03T10:18:18.859Z,73.5
2017-11-03T10:19:17.722Z,73
2017-11-03T10:20:17.255Z,72.9
2017-11-03T10:21:16.287Z,73
2017-11-03T10:22:15.339Z,73.6
2017-11-03T10:23:14.483Z,73.1
2017-11-03T10:24:13.494Z,72.8
2017-11-03T10:25:12.643Z,73.4
2017-11-03T10:26:11.703Z,73.6
2017-11-03T10:27:10.847Z,73.2
2017-11-03T10:28:10.227Z,72.1
2017-11-03T10:29:09.508Z,72.4
2017-11-03T10:31:07.927Z,72.3
2017-11-03T10:32:06.461Z,72.3
2017-11-03T10:33:05.736Z,71.9
2017-11-03T10:34:05.014Z,71.4
2017-11-03T10:35:04.303Z,70.9
2017-11-03T10:36:03.314Z,70.7
2017-11-03T10:37:02.834Z,71.4
2017-11-03T10:38:01.850Z,71.7
2017-11-03T10:39:00.734Z,71.5
2017-11-03T10:39:59.882Z,71.7
2017-11-03T10:40:59.022Z,71.7
2017-11-03T10:41:58.279Z,71.1
2017-11-03T10:42:57.287Z,71.9
2017-11-03T10:43:56.567Z,72
2017-11-03T10:44:55.578Z,72.3
2017-11-03T10:45:54.851Z,72
2017-11-03T10:46:53.865Z,72.1
2017-11-03T10:48:52.528Z,71.7
2017-11-03T10:49:51.411Z,71.4
2017-11-03T10:50:50.691Z,71.6
2017-11-03T10:51:49.712Z,71.9
2017-11-03T10:52:48.994Z,72.3
2017-11-03T10:53:48.128Z,71.4
2017-11-03T10:54:47.280Z,71.9
2017-11-03T10:55:46.428Z,71.9
2017-11-03T10:56:45.853Z,71.8
2017-11-03T10:57:44.553Z,71.7
2017-11-03T10:58:43.835Z,72
2017-11-03T10:59:43.117Z,72.1
2017-11-03T11:00:42.631Z,72.2
2017-11-03T11:01:41.278Z,72.2
2017-11-03T11:03:39.545Z,72.2
2017-11-03T11:04:38.958Z,72.6
2017-11-03T11:05:38.100Z,72.2
2017-11-03T11:06:37.378Z,72.4
2017-11-03T11:07:36.657Z,72.2
2017-11-03T11:08:35.809Z,71.2
2017-11-03T11:09:34.825Z,71.5
2017-11-03T11:10:33.706Z,71.1
2017-11-03T11:11:33.354Z,71.5
2017-11-03T11:12:32.397Z,72
2017-11-03T11:13:31.547Z,70.5
2017-11-03T11:14:30.570Z,70.9
2017-11-03T11:15:29.607Z,70.6
2017-11-03T11:16:28.987Z,70.4
2017-11-03T11:17:27.999Z,70
2017-11-03T11:18:27.384Z,69.9
2017-11-03T11:19:26.164Z,70.1
2017-11-03T11:20:25.445Z,69.9
2017-11-03T11:21:24.697Z,69.3
2017-11-03T11:22:23.712Z,69.3
2017-11-03T11:23:23.232Z,69.2
2017-11-03T11:24:22.386Z,69.6
2017-11-03T11:25:21.400Z,70.4
2017-11-03T11:26:20.915Z,70.3
2017-11-03T11:27:19.718Z,69.5
2017-11-03T11:28:19.003Z,68.9
2017-11-03T11:29:18.149Z,69.2
2017-11-03T11:30:17.172Z,68.3
2017-11-03T11:31:16.324Z,69.4
2017-11-03T11:32:15.476Z,68.4
2017-11-03T11:33:14.627Z,69.3
2017-11-03T11:34:13.775Z,68.4
2017-11-03T11:35:13.193Z,68.8
2017-11-03T11:36:12.079Z,69.2
2017-11-03T11:37:11.613Z,69
2017-11-03T11:38:10.632Z,70
2017-11-03T11:39:09.918Z,69.2
2017-11-03T11:40:08.927Z,68.6
2017-11-03T11:41:07.939Z,68.6
2017-11-03T11:42:07.459Z,68.3
2017-11-03T11:43:06.389Z,68.2
2017-11-03T11:44:05.668Z,67.5
2017-11-03T11:45:04.695Z,67.6
2017-11-03T11:46:03.719Z,68.1
2017-11-03T11:47:03.135Z,67.7
2017-11-03T11:48:02.300Z,67.8
2017-11-03T11:49:01.489Z,67.8
2017-11-03T11:50:00.874Z,68.3
2017-11-03T11:50:59.952Z,68.5
2017-11-03T11:51:59.227Z,68
2017-11-03T11:52:58.277Z,68
2017-11-03T11:53:57.690Z,67.5
2017-11-03T11:54:56.477Z,68.1
2017-11-03T11:55:55.624Z,66.5
2017-11-03T11:56:54.901Z,66.7
2017-11-03T11:57:54.415Z,66.8
2017-11-03T11:58:53.334Z,66.6
2017-11-03T11:59:52.352Z,67.4
2017-11-03T12:00:51.743Z,69
2017-11-03T12:01:50.651Z,66.6
2017-11-03T12:03:49.051Z,67.6
2017-11-03T12:04:48.070Z,67.2
2017-11-03T12:05:47.583Z,67.7
2017-11-03T12:06:46.594Z,67.3
2017-11-03T12:07:45.734Z,68.1
2017-11-03T12:08:45.016Z,68.3
2017-11-03T12:09:44.644Z,67.8
2017-11-03T12:10:43.286Z,68.7
2017-11-03T12:11:42.562Z,69
2017-11-03T12:12:41.838Z,68
2017-11-03T12:13:41.110Z,66.9
2017-11-03T12:14:40.404Z,67.3
2017-11-03T12:15:39.419Z,66.6
2017-11-03T12:16:38.710Z,67.5
2017-11-03T12:17:37.574Z,67
2017-11-03T12:18:08.035Z,67
2017-11-03T12:18:38.620Z,66.9
2017-11-03T12:19:08.844Z,66.9
2017-11-03T12:19:39.041Z,66.8
2017-11-03T12:20:09.870Z,66.8
2017-11-03T12:20:40.242Z,66.5
2017-11-03T12:21:34.493Z,67.8
2017-11-03T12:22:33.538Z,67.3
2017-11-03T12:23:32.684Z,67.2
2017-11-03T12:24:31.958Z,65.9
2017-11-03T12:25:31.238Z,66
2017-11-03T12:26:30.018Z,66.3
2017-11-03T12:27:29.663Z,66.3
2017-11-03T12:28:28.690Z,66.7
2017-11-03T12:28:59.012Z,66.7
2017-11-03T12:29:29.344Z,67.3
2017-11-03T12:29:59.805Z,67.3
2017-11-03T12:31:26.267Z,66.6
2017-11-03T12:32:25.714Z,66.4
2017-11-03T12:33:24.484Z,66.3
2017-11-03T12:34:23.657Z,66.7
2017-11-03T12:35:23.039Z,67.1
2017-11-03T12:36:22.315Z,66.9
2017-11-03T12:37:21.226Z,66.5
2017-11-03T12:38:20.249Z,67.2
2017-11-03T12:39:19.899Z,66.7
2017-11-03T12:40:18.926Z,65.8
2017-11-03T12:41:18.207Z,66.2
2017-11-03T12:42:17.125Z,65.9
2017-11-03T12:43:16.270Z,66.3
2017-11-03T12:44:15.784Z,66.1
2017-11-03T12:45:14.942Z,65.9
2017-11-03T12:46:14.218Z,66.1
2017-11-03T12:47:13.236Z,66.6
2017-11-03T12:48:12.382Z,66.4
2017-11-03T12:49:11.559Z,66.4
2017-11-03T12:50:10.439Z,66.8
2017-11-03T12:51:10.083Z,66.8
2017-11-03T12:52:09.360Z,65.7
2017-11-03T12:53:08.380Z,65.6
2017-11-03T12:54:07.269Z,66.6
2017-11-03T12:55:06.430Z,66.7
2017-11-03T12:56:05.573Z,66.9
2017-11-03T12:57:04.960Z,65.8
2017-11-03T12:58:04.236Z,66.3
2017-11-03T12:59:03.384Z,67.6
2017-11-03T13:00:02.798Z,66.6
2017-11-03T13:01:01.680Z,66.8
2017-11-03T13:02:00.827Z,66.8
2017-11-03T13:03:00.107Z,67.1
2017-11-03T13:03:59.385Z,66.4
2017-11-03T13:04:58.803Z,67.6
2017-11-03T13:05:57.681Z,65.4